createdAt,value
2023-04-25T00:00:16.763Z,12.70
2023-04-25T00:02:43.668Z,12.80
2023-04-25T00:05:10.592Z,12.40
2023-04-25T00:07:37.311Z,12.40
2023-04-25T00:10:03.943Z,12.20
2023-04-25T00:12:30.543Z,12.30
2023-04-25T00:14:57.144Z,12.40
2023-04-25T00:17:23.775Z,12.60
2023-04-25T00:19:50.548Z,12.40
2023-04-25T00:22:17.151Z,12.20
2023-04-25T00:24:43.856Z,12.30
2023-04-25T00:27:10.520Z,12.40
2023-04-25T00:29:37.160Z,12.50
2023-04-25T00:32:03.769Z,12.30
2023-04-25T00:34:30.477Z,12.40
2023-04-25T00:36:57.109Z,12.50
2023-04-25T00:39:23.708Z,12.60
2023-04-25T00:41:50.373Z,12.00
2023-04-25T00:44:16.967Z,12.20
2023-04-25T00:46:43.641Z,12.10
2023-04-25T00:49:10.211Z,11.80
2023-04-25T00:51:36.873Z,11.60
2023-04-25T00:54:03.459Z,11.90
2023-04-25T00:56:30.092Z,12.20
2023-04-25T00:58:56.815Z,12.20
2023-04-25T01:01:23.459Z,12.00
2023-04-25T01:03:50.533Z,12.20
2023-04-25T01:06:17.366Z,12.00
2023-04-25T01:08:44.133Z,11.70
2023-04-25T01:11:10.811Z,11.80
2023-04-25T01:13:37.461Z,11.80
2023-04-25T01:16:04.127Z,11.40
2023-04-25T01:18:30.749Z,11.50
2023-04-25T01:20:57.346Z,11.50
2023-04-25T01:23:23.944Z,11.60
2023-04-25T01:25:50.558Z,11.50
2023-04-25T01:28:17.164Z,11.60
2023-04-25T01:30:43.819Z,11.80
2023-04-25T01:33:10.423Z,11.70
2023-04-25T01:35:37.011Z,11.20
2023-04-25T01:38:03.615Z,10.90
2023-04-25T01:40:30.400Z,10.90
2023-04-25T01:42:57.249Z,10.80
2023-04-25T01:45:24.892Z,10.50
2023-04-25T01:47:51.535Z,10.50
2023-04-25T01:50:18.284Z,10.90
2023-04-25T01:52:45.076Z,11.20
2023-04-25T01:55:11.930Z,10.90
2023-04-25T01:57:38.596Z,10.40
2023-04-25T02:00:05.182Z,10.50
2023-04-25T02:02:31.934Z,10.70
2023-04-25T02:04:58.570Z,10.90
2023-04-25T02:07:25.210Z,10.80
2023-04-25T02:09:52.247Z,10.70
2023-04-25T02:12:18.854Z,10.70
2023-04-25T02:14:45.516Z,10.50
2023-04-25T02:17:12.348Z,10.60
2023-04-25T02:19:39.099Z,10.10
2023-04-25T02:22:05.681Z,9.90
2023-04-25T02:24:32.284Z,10.20
2023-04-25T02:26:58.866Z,10.50
2023-04-25T02:29:25.477Z,10.20
2023-04-25T02:31:52.154Z,10.30
2023-04-25T02:34:18.860Z,10.30
2023-04-25T02:36:45.733Z,10.40
2023-04-25T02:39:12.459Z,10.10
2023-04-25T02:41:39.030Z,9.90
2023-04-25T02:44:05.637Z,9.50
2023-04-25T02:46:39.132Z,9.80
2023-04-25T02:49:06.842Z,9.90
2023-04-25T02:51:33.509Z,10.10
2023-04-25T02:54:00.193Z,10.30
2023-04-25T02:56:26.764Z,10.30
2023-04-25T02:58:53.347Z,10.00
2023-04-25T03:01:20.085Z,9.60
2023-04-25T03:03:46.847Z,9.60
2023-04-25T03:06:13.788Z,9.80
2023-04-25T03:08:40.413Z,10.10
2023-04-25T03:11:06.983Z,10.00
2023-04-25T03:13:33.589Z,10.00
2023-04-25T03:16:00.204Z,10.00
2023-04-25T03:18:26.820Z,10.40
2023-04-25T03:20:53.514Z,10.50
2023-04-25T03:23:20.165Z,10.20
2023-04-25T03:25:46.816Z,10.50
2023-04-25T03:28:13.432Z,10.60
2023-04-25T03:30:40.246Z,10.70
2023-04-25T03:33:07.077Z,10.80
2023-04-25T03:35:33.763Z,10.70
2023-04-25T03:38:00.478Z,10.60
2023-04-25T03:40:27.119Z,10.50
2023-04-25T03:42:53.732Z,10.30
2023-04-25T03:45:20.367Z,9.90
2023-04-25T03:47:47.297Z,9.50
2023-04-25T03:50:13.967Z,9.50
2023-04-25T03:52:40.669Z,9.70
2023-04-25T03:55:07.323Z,9.90
2023-04-25T03:57:33.970Z,9.90
2023-04-25T04:00:00.685Z,9.90
2023-04-25T04:02:27.399Z,9.60
2023-04-25T04:04:54.297Z,9.60
2023-04-25T04:07:21.344Z,9.70
2023-04-25T04:09:47.945Z,9.60
2023-04-25T04:12:14.612Z,9.40
2023-04-25T04:14:41.307Z,9.70
2023-04-25T04:17:07.966Z,9.80
2023-04-25T04:19:34.980Z,9.80
2023-04-25T04:22:01.598Z,9.90
2023-04-25T04:24:28.217Z,9.90
2023-04-25T04:26:54.866Z,9.30
2023-04-25T04:29:21.502Z,9.40
2023-04-25T04:31:48.275Z,9.60
2023-04-25T04:34:14.977Z,9.50
2023-04-25T04:36:41.615Z,9.40
2023-04-25T04:39:08.230Z,9.70
2023-04-25T04:41:35.032Z,9.50
2023-04-25T04:44:01.781Z,9.40
2023-04-25T04:46:28.466Z,9.60
2023-04-25T04:48:55.190Z,9.80
2023-04-25T04:51:21.907Z,9.60
2023-04-25T04:53:48.953Z,9.80
2023-04-25T04:56:15.792Z,10.00
2023-04-25T04:58:42.444Z,10.30
2023-04-25T05:01:09.106Z,10.30
2023-04-25T05:03:35.898Z,10.20
2023-04-25T05:06:02.655Z,10.40
2023-04-25T05:08:29.324Z,10.60
2023-04-25T05:10:55.935Z,10.60
2023-04-25T05:13:22.573Z,10.80
2023-04-25T05:15:49.153Z,10.80
2023-04-25T05:18:15.835Z,10.80
2023-04-25T05:20:43.119Z,11.10
2023-04-25T05:23:09.815Z,11.30
2023-04-25T05:25:36.401Z,11.10
2023-04-25T05:28:03.068Z,11.40
2023-04-25T05:30:29.799Z,11.40
2023-04-25T05:32:56.461Z,11.50
2023-04-25T05:35:23.597Z,10.80
2023-04-25T05:37:50.211Z,10.90
2023-04-25T05:40:17.028Z,11.60
2023-04-25T05:42:43.632Z,11.80
2023-04-25T05:45:10.226Z,10.90
2023-04-25T05:47:36.872Z,11.60
2023-04-25T05:50:03.511Z,12.10
2023-04-25T05:52:30.242Z,12.10
2023-04-25T05:54:56.906Z,12.40
2023-04-25T05:57:23.527Z,12.90
2023-04-25T05:59:50.136Z,13.00
2023-04-25T06:02:16.821Z,13.10
2023-04-25T06:04:43.656Z,12.50
2023-04-25T06:07:10.283Z,12.70
2023-04-25T06:09:36.878Z,12.20
2023-04-25T06:12:03.498Z,12.20
2023-04-25T06:14:30.156Z,12.70
2023-04-25T06:16:56.857Z,12.30
2023-04-25T06:19:23.448Z,12.10
2023-04-25T06:21:50.064Z,12.50
2023-04-25T06:24:16.667Z,13.00
2023-04-25T06:26:43.230Z,12.60
2023-04-25T06:29:09.854Z,12.80
2023-04-25T06:31:36.582Z,12.70
2023-04-25T06:34:03.259Z,12.80
2023-04-25T06:36:29.821Z,13.20
2023-04-25T06:38:56.400Z,13.10
2023-04-25T06:41:23.065Z,13.00
2023-04-25T06:43:49.664Z,13.10
2023-04-25T06:46:16.242Z,13.00
2023-04-25T06:48:42.917Z,13.30
2023-04-25T06:51:09.532Z,13.30
2023-04-25T06:53:36.233Z,13.40
2023-04-25T06:56:02.817Z,13.10
2023-04-25T06:58:29.848Z,13.40
2023-04-25T07:00:56.447Z,13.40
2023-04-25T07:03:23.250Z,13.30
2023-04-25T07:05:49.967Z,13.50
2023-04-25T07:08:16.615Z,13.60
2023-04-25T07:10:43.301Z,13.90
2023-04-25T07:13:09.907Z,13.90
2023-04-25T07:15:36.555Z,13.90
2023-04-25T07:18:03.151Z,14.00
2023-04-25T07:20:29.973Z,14.10
2023-04-25T07:22:56.711Z,14.40
2023-04-25T07:25:23.427Z,14.50
2023-04-25T07:27:50.023Z,14.40
2023-04-25T07:30:16.596Z,14.50
2023-04-25T07:32:43.184Z,15.00
2023-04-25T07:35:09.776Z,15.20
2023-04-25T07:37:36.396Z,15.10
2023-04-25T07:40:03.418Z,15.10
2023-04-25T07:42:29.980Z,15.40
2023-04-25T07:44:56.661Z,15.90
2023-04-25T07:47:23.382Z,15.80
2023-04-25T07:49:50.050Z,15.60
2023-04-25T07:52:16.640Z,15.40
2023-04-25T07:54:43.307Z,15.50
2023-04-25T07:57:10.021Z,15.90
2023-04-25T07:59:36.799Z,15.90
2023-04-25T08:02:03.492Z,16.10
2023-04-25T08:04:30.283Z,16.40
2023-04-25T08:06:56.996Z,16.20
2023-04-25T08:09:23.610Z,16.60
2023-04-25T08:11:50.830Z,16.50
2023-04-25T08:14:17.504Z,16.30
2023-04-25T08:16:44.139Z,16.50
2023-04-25T08:19:10.855Z,17.30
2023-04-25T08:21:37.512Z,17.00
2023-04-25T08:24:04.059Z,16.50
2023-04-25T08:26:30.710Z,16.30
2023-04-25T08:28:57.331Z,16.90
2023-04-25T08:31:24.107Z,17.40
2023-04-25T08:33:50.807Z,17.60
2023-04-25T08:36:27.901Z,17.90
2023-04-25T08:39:04.469Z,17.40
2023-04-25T08:41:31.470Z,17.00
2023-04-25T08:43:58.153Z,16.80
2023-04-25T08:46:25.057Z,16.70
2023-04-25T08:48:52.466Z,17.00
2023-04-25T08:51:22.359Z,16.70
2023-04-25T08:53:53.507Z,17.20
2023-04-25T08:56:20.571Z,17.30
2023-04-25T08:58:47.151Z,17.30
2023-04-25T09:01:13.781Z,16.90
2023-04-25T09:03:40.555Z,16.90
2023-04-25T09:06:07.210Z,16.50
2023-04-25T09:08:33.847Z,16.90
2023-04-25T09:11:00.468Z,17.20
2023-04-25T09:13:27.084Z,17.30
2023-04-25T09:15:53.785Z,17.00
2023-04-25T09:18:20.381Z,17.20
2023-04-25T09:23:16.534Z,17.10
2023-04-25T09:25:43.145Z,17.00
2023-04-25T09:28:09.814Z,17.00
2023-04-25T09:30:36.467Z,16.90
2023-04-25T09:33:03.321Z,16.90
2023-04-25T09:35:30.089Z,17.10
2023-04-25T09:37:56.760Z,17.10
2023-04-25T09:40:23.507Z,16.60
2023-04-25T09:42:50.080Z,16.80
2023-04-25T09:45:16.702Z,17.00
2023-04-25T09:47:43.334Z,17.60
2023-04-25T09:50:09.981Z,18.30
2023-04-25T09:52:36.713Z,18.20
2023-04-25T09:55:03.338Z,18.00
2023-04-25T09:57:29.964Z,18.40
2023-04-25T09:59:56.617Z,18.70
2023-04-25T10:02:23.330Z,18.20
2023-04-25T10:04:50.097Z,17.90
2023-04-25T10:07:16.809Z,18.00
2023-04-25T10:09:43.403Z,18.30
2023-04-25T10:12:09.996Z,17.70
2023-04-25T10:14:36.701Z,17.60
2023-04-25T10:17:03.347Z,18.20
2023-04-25T10:19:30.086Z,17.20
2023-04-25T10:21:56.653Z,17.40
2023-04-25T10:24:23.375Z,17.70
2023-04-25T10:26:50.312Z,18.50
2023-04-25T10:29:17.122Z,18.80
2023-04-25T10:31:43.791Z,19.30
2023-04-25T10:34:10.408Z,18.70
2023-04-25T10:36:36.986Z,18.60
2023-04-25T10:39:03.579Z,19.40
2023-04-25T10:41:30.221Z,20.30
2023-04-25T10:43:59.194Z,20.30
2023-04-25T10:46:25.919Z,19.70
2023-04-25T10:48:52.575Z,19.60
2023-04-25T10:51:19.168Z,19.40
2023-04-25T10:53:45.780Z,19.90
2023-04-25T10:56:13.205Z,19.80
2023-04-25T10:58:41.045Z,19.80
2023-04-25T11:01:07.757Z,19.60
2023-04-25T11:03:34.524Z,19.10
2023-04-25T11:06:01.535Z,19.30
2023-04-25T11:08:28.128Z,19.70
2023-04-25T11:10:54.749Z,19.80
2023-04-25T11:13:21.421Z,18.90
2023-04-25T11:15:50.350Z,18.40
2023-04-25T11:18:21.792Z,18.60
2023-04-25T11:20:48.622Z,18.40
2023-04-25T11:23:15.208Z,18.20
2023-04-25T11:25:41.815Z,18.20
2023-04-25T11:28:08.421Z,18.60
2023-04-25T11:30:35.023Z,18.40
2023-04-25T11:33:01.720Z,18.80
2023-04-25T11:35:28.384Z,18.90
2023-04-25T11:37:55.166Z,18.50
2023-04-25T11:40:21.899Z,18.40
2023-04-25T11:42:48.488Z,18.30
2023-04-25T11:45:15.061Z,17.40
2023-04-25T11:47:41.715Z,17.60
2023-04-25T11:50:08.362Z,17.10
2023-04-25T11:52:35.045Z,17.20
2023-04-25T11:55:01.718Z,17.20
2023-04-25T11:57:30.668Z,17.10
2023-04-25T11:59:57.345Z,17.20
2023-04-25T12:02:24.208Z,17.00
2023-04-25T12:04:51.651Z,17.10
2023-04-25T12:07:18.720Z,16.80
2023-04-25T12:09:45.385Z,17.00
2023-04-25T12:12:12.520Z,17.10
2023-04-25T12:14:39.079Z,17.80
2023-04-25T12:17:06.183Z,17.90
2023-04-25T12:19:33.129Z,18.20
2023-04-25T12:22:00.213Z,18.10
2023-04-25T12:24:27.199Z,17.90
2023-04-25T12:26:54.306Z,18.30
2023-04-25T12:29:21.438Z,18.60
2023-04-25T12:31:48.136Z,18.50
2023-04-25T12:34:14.914Z,18.50
2023-04-25T12:36:41.542Z,18.80
2023-04-25T12:39:08.142Z,18.90
2023-04-25T12:41:35.118Z,19.20
2023-04-25T12:44:01.791Z,18.40
2023-04-25T12:46:28.564Z,18.50
2023-04-25T12:48:55.960Z,19.30
2023-04-25T12:51:25.356Z,19.50
2023-04-25T12:53:51.948Z,19.30
2023-04-25T12:56:18.792Z,19.50
2023-04-25T12:58:46.161Z,19.60
2023-04-25T13:01:12.811Z,19.70
2023-04-25T13:03:39.586Z,19.20
2023-04-25T13:06:06.444Z,19.20
2023-04-25T13:08:33.084Z,19.20
2023-04-25T13:10:59.649Z,19.40
2023-04-25T13:13:26.228Z,19.30
2023-04-25T13:15:52.939Z,18.60
2023-04-25T13:18:19.521Z,19.00
2023-04-25T13:20:46.141Z,19.40
2023-04-25T13:23:12.863Z,19.50
2023-04-25T13:25:39.738Z,19.20
2023-04-25T13:28:06.344Z,19.70
2023-04-25T13:30:32.945Z,20.40
2023-04-25T13:32:59.555Z,20.70
2023-04-25T13:35:26.191Z,21.00
2023-04-25T13:37:52.985Z,21.20
2023-04-25T13:40:19.577Z,21.00
2023-04-25T13:42:46.179Z,20.70
2023-04-25T13:45:12.760Z,20.40
2023-04-25T13:47:39.374Z,20.40
2023-04-25T13:50:06.094Z,20.10
2023-04-25T13:52:32.755Z,20.90
2023-04-25T13:54:59.355Z,20.00
2023-04-25T13:57:25.964Z,19.40
2023-04-25T13:59:52.590Z,18.40
2023-04-25T14:02:19.214Z,18.60
2023-04-25T14:04:45.999Z,18.60
2023-04-25T14:07:12.874Z,19.10
2023-04-25T14:09:39.600Z,19.00
2023-04-25T14:12:06.179Z,19.10
2023-04-25T14:14:32.785Z,19.40
2023-04-25T14:16:59.383Z,19.70
2023-04-25T14:19:26.035Z,19.70
2023-04-25T14:21:52.623Z,19.60
2023-04-25T14:24:19.269Z,18.80
2023-04-25T14:26:45.848Z,19.00
2023-04-25T14:29:12.480Z,18.80
2023-04-25T14:31:39.302Z,19.20
2023-04-25T14:34:05.923Z,19.20
2023-04-25T14:36:32.522Z,18.10
2023-04-25T14:38:59.133Z,17.60
2023-04-25T14:41:25.737Z,17.60
2023-04-25T14:43:52.719Z,17.90
2023-04-25T14:46:19.538Z,18.00
2023-04-25T14:48:46.351Z,17.90
2023-04-25T14:51:12.941Z,17.90
2023-04-25T14:53:39.654Z,18.00
2023-04-25T14:56:06.282Z,18.30
2023-04-25T14:58:32.986Z,17.80
2023-04-25T15:00:59.760Z,18.10
2023-04-25T15:03:26.451Z,18.70
2023-04-25T15:05:53.129Z,19.10
2023-04-25T15:08:19.817Z,18.90
2023-04-25T15:10:46.431Z,19.00
2023-04-25T15:13:13.034Z,19.30
2023-04-25T15:15:39.617Z,19.10
2023-04-25T15:18:06.349Z,19.30
2023-04-25T15:20:32.949Z,19.40
2023-04-25T15:22:59.639Z,19.60
2023-04-25T15:25:26.367Z,19.90
2023-04-25T15:27:52.963Z,19.70
2023-04-25T15:30:19.683Z,19.10
2023-04-25T15:32:46.292Z,19.00
2023-04-25T15:35:12.985Z,18.90
2023-04-25T15:37:39.627Z,18.60
2023-04-25T15:40:06.231Z,18.50
2023-04-25T15:42:32.805Z,18.50
2023-04-25T15:44:59.374Z,18.40
2023-04-25T15:47:25.973Z,18.00
2023-04-25T15:49:52.584Z,17.70
2023-04-25T15:52:19.174Z,18.30
2023-04-25T15:54:45.765Z,18.80
2023-04-25T15:57:15.433Z,19.20
2023-04-25T15:59:42.255Z,19.20
2023-04-25T16:02:08.929Z,19.40
2023-04-25T16:04:35.603Z,19.50
2023-04-25T16:07:02.333Z,20.00
2023-04-25T16:09:29.315Z,19.90
2023-04-25T16:11:55.965Z,19.80
2023-04-25T16:14:22.577Z,19.90
2023-04-25T16:16:49.331Z,19.80
2023-04-25T16:19:15.945Z,19.50
2023-04-25T16:21:42.541Z,19.60
2023-04-25T16:24:09.193Z,19.50
2023-04-25T16:26:35.785Z,19.20
2023-04-25T16:29:02.401Z,19.50
2023-04-25T16:31:28.999Z,19.40
2023-04-25T16:33:55.702Z,19.40
2023-04-25T16:36:22.349Z,19.10
2023-04-25T16:38:49.498Z,19.10
2023-04-25T16:41:16.340Z,18.50
2023-04-25T16:43:42.936Z,18.10
2023-04-25T16:46:09.634Z,18.20
2023-04-25T16:48:36.448Z,18.00
2023-04-25T16:51:03.010Z,18.10
2023-04-25T16:53:29.600Z,18.50
2023-04-25T16:55:56.258Z,19.00
2023-04-25T16:58:22.875Z,18.30
2023-04-25T17:00:49.560Z,17.70
2023-04-25T17:03:16.424Z,17.60
2023-04-25T17:05:43.126Z,17.10
2023-04-25T17:08:10.274Z,17.30
2023-04-25T17:10:37.266Z,17.10
2023-04-25T17:13:04.359Z,17.10
2023-04-25T17:15:33.069Z,16.60
2023-04-25T17:18:00.953Z,16.40
2023-04-25T17:20:27.540Z,16.40
2023-04-25T17:22:54.123Z,16.10
2023-04-25T17:25:20.883Z,15.90
2023-04-25T17:27:47.463Z,16.00
2023-04-25T17:30:14.088Z,16.00
2023-04-25T17:32:40.697Z,15.60
2023-04-25T17:35:07.361Z,15.80
2023-04-25T17:37:33.988Z,15.90
2023-04-25T17:40:00.634Z,15.50
2023-04-25T17:42:27.218Z,15.50
2023-04-25T17:44:53.809Z,15.20
2023-04-25T17:47:20.367Z,15.10
2023-04-25T17:49:46.970Z,14.90
2023-04-25T17:52:13.608Z,15.10
2023-04-25T17:54:40.346Z,15.20
2023-04-25T17:57:06.944Z,14.80
2023-04-25T17:59:33.536Z,14.30
2023-04-25T18:02:00.219Z,14.20
2023-04-25T18:04:27.224Z,14.30
2023-04-25T18:06:53.855Z,14.10
2023-04-25T18:09:20.463Z,14.00
2023-04-25T18:11:47.102Z,14.10
2023-04-25T18:14:13.724Z,13.80
2023-04-25T18:16:40.364Z,13.60
2023-04-25T18:19:07.012Z,13.90
2023-04-25T18:21:33.613Z,14.10
2023-04-25T18:24:00.185Z,14.10
2023-04-25T18:26:26.821Z,14.10
2023-04-25T18:28:53.728Z,14.30
2023-04-25T18:31:20.705Z,14.20
2023-04-25T18:33:47.342Z,13.80
2023-04-25T18:36:13.989Z,13.80
2023-04-25T18:38:40.593Z,14.10
2023-04-25T18:41:27.471Z,14.50
2023-04-25T18:43:54.212Z,14.50
2023-04-25T18:46:21.270Z,14.30
2023-04-25T18:48:47.915Z,14.10
2023-04-25T18:51:14.494Z,13.90
2023-04-25T18:53:41.098Z,13.90
2023-04-25T18:56:07.700Z,14.00
2023-04-25T18:58:34.306Z,14.00
2023-04-25T19:01:00.974Z,14.00
2023-04-25T19:03:27.778Z,14.20
2023-04-25T19:05:54.449Z,14.00
2023-04-25T19:08:21.029Z,13.60
2023-04-25T19:10:47.840Z,13.60
2023-04-25T19:13:14.410Z,13.50
2023-04-25T19:15:41.089Z,13.80
2023-04-25T19:18:07.839Z,13.80
2023-04-25T19:20:34.455Z,13.80
2023-04-25T19:23:01.085Z,13.50
2023-04-25T19:25:27.704Z,13.80
2023-04-25T19:27:54.323Z,14.00
2023-04-25T19:30:21.076Z,13.80
2023-04-25T19:32:48.005Z,13.90
2023-04-25T19:35:14.658Z,13.40
2023-04-25T19:37:41.265Z,13.30
2023-04-25T19:40:07.845Z,13.20
2023-04-25T19:42:34.429Z,13.40
2023-04-25T19:45:01.076Z,13.60
2023-04-25T19:47:27.704Z,13.50
2023-04-25T19:49:54.327Z,13.40
2023-04-25T19:52:20.899Z,13.10
2023-04-25T19:54:47.493Z,13.20
2023-04-25T19:57:14.102Z,13.20
2023-04-25T19:59:40.713Z,13.20
2023-04-25T20:02:07.339Z,13.10
2023-04-25T20:04:34.101Z,13.00
2023-04-25T20:07:00.862Z,13.10
2023-04-25T20:09:27.452Z,13.20
2023-04-25T20:11:54.193Z,13.20
2023-04-25T20:14:20.869Z,13.20
2023-04-25T20:16:47.548Z,12.90
2023-04-25T20:19:14.257Z,12.90
2023-04-25T20:21:40.829Z,12.90
2023-04-25T20:24:07.418Z,12.80
2023-04-25T20:26:34.032Z,12.70
2023-04-25T20:29:00.639Z,12.20
2023-04-25T20:31:27.300Z,11.90
2023-04-25T20:33:53.893Z,11.40
2023-04-25T20:36:20.511Z,11.10
2023-04-25T20:38:47.111Z,11.50
2023-04-25T20:41:13.794Z,11.40
2023-04-25T20:43:40.414Z,11.50
2023-04-25T20:46:07.074Z,11.70
2023-04-25T20:48:33.957Z,11.90
2023-04-25T20:51:00.653Z,11.90
2023-04-25T20:53:27.286Z,11.70
2023-04-25T20:55:53.928Z,11.60
2023-04-25T20:58:20.700Z,11.30
2023-04-25T21:00:47.506Z,11.40
2023-04-25T21:03:14.496Z,11.10
2023-04-25T21:05:41.166Z,11.20
2023-04-25T21:08:07.785Z,11.20
2023-04-25T21:10:36.168Z,11.00
2023-04-25T21:13:04.078Z,11.00
2023-04-25T21:15:30.763Z,11.20
2023-04-25T21:17:57.465Z,11.30
2023-04-25T21:20:24.209Z,10.70
2023-04-25T21:22:53.811Z,10.60
2023-04-25T21:25:21.123Z,10.70
2023-04-25T21:27:47.694Z,10.40
2023-04-25T21:30:14.343Z,10.30
2023-04-25T21:32:41.010Z,10.40
2023-04-25T21:35:07.697Z,10.20
2023-04-25T21:37:34.629Z,10.00
2023-04-25T21:40:01.248Z,9.90
2023-04-25T21:42:27.905Z,10.20
2023-04-25T21:44:54.507Z,10.60
2023-04-25T21:47:21.195Z,10.70
2023-04-25T21:49:47.826Z,10.90
2023-04-25T21:52:14.446Z,10.60
2023-04-25T21:54:41.089Z,10.50
2023-04-25T21:57:08.102Z,10.60
2023-04-25T21:59:34.682Z,10.30
2023-04-25T22:02:01.344Z,10.50
2023-04-25T22:04:28.183Z,10.10
2023-04-25T22:06:55.125Z,10.40
2023-04-25T22:09:22.992Z,10.60
2023-04-25T22:11:49.605Z,10.60
2023-04-25T22:14:16.450Z,9.60
2023-04-25T22:16:43.135Z,9.90
2023-04-25T22:19:09.865Z,9.60
2023-04-25T22:21:36.535Z,9.50
2023-04-25T22:24:03.168Z,9.70
2023-04-25T22:26:29.784Z,10.10
2023-04-25T22:28:56.422Z,10.20
2023-04-25T22:31:23.052Z,9.80
2023-04-25T22:33:49.709Z,9.70
2023-04-25T22:36:16.524Z,9.70
2023-04-25T22:38:43.201Z,9.70
2023-04-25T22:41:09.863Z,9.60
2023-04-25T22:43:36.438Z,9.70
2023-04-25T22:46:03.156Z,9.80
2023-04-25T22:48:29.774Z,9.80
2023-04-25T22:50:56.450Z,9.90
2023-04-25T22:53:23.059Z,9.90
2023-04-25T22:55:49.675Z,10.00
2023-04-25T22:58:16.295Z,9.90
2023-04-25T23:00:42.993Z,9.50
2023-04-25T23:03:09.768Z,9.30
2023-04-25T23:05:36.474Z,9.30
2023-04-25T23:08:03.127Z,9.50
2023-04-25T23:10:29.828Z,9.70
2023-04-25T23:12:56.461Z,9.70
2023-04-25T23:15:23.073Z,9.70
2023-04-25T23:17:49.749Z,9.70
2023-04-25T23:20:16.360Z,9.40
2023-04-25T23:22:42.995Z,9.40
2023-04-25T23:25:09.661Z,9.50
2023-04-25T23:27:36.345Z,9.30
2023-04-25T23:30:04.055Z,9.70
2023-04-25T23:32:30.737Z,9.50
2023-04-25T23:34:57.364Z,8.90
2023-04-25T23:37:23.951Z,9.00
2023-04-25T23:39:50.566Z,8.90
2023-04-25T23:42:17.220Z,8.80
2023-04-25T23:44:43.856Z,9.10
2023-04-25T23:47:10.566Z,9.30
2023-04-25T23:49:37.217Z,9.00
2023-04-25T23:52:03.897Z,9.20
2023-04-25T23:54:30.486Z,9.10
2023-04-25T23:56:57.113Z,9.30
2023-04-25T23:59:23.716Z,9.40
